createdAt,value
2019-02-24T00:00:56.415Z,43.78
2019-02-24T00:01:56.404Z,44.08
2019-02-24T00:02:56.392Z,44.06
2019-02-24T00:03:56.388Z,44.08
2019-02-24T00:04:56.369Z,43.88
2019-02-24T00:05:56.368Z,44.08
2019-02-24T00:06:56.348Z,44.08
2019-02-24T00:07:56.348Z,44.06
2019-02-24T00:08:56.328Z,43.96
2019-02-24T00:09:56.323Z,44.08
2019-02-24T00:10:56.303Z,43.78
2019-02-24T00:11:56.301Z,43.88
2019-02-24T00:12:56.289Z,44.18
2019-02-24T00:13:56.283Z,44.18
2019-02-24T00:14:56.264Z,44.18
2019-02-24T00:15:56.254Z,43.88
2019-02-24T00:16:56.243Z,43.78
2019-02-24T00:17:56.227Z,43.08
2019-02-24T00:18:56.221Z,43.98
2019-02-24T00:19:56.214Z,43.48
2019-02-24T00:20:56.195Z,43.28
2019-02-24T00:21:56.186Z,43.28
2019-02-24T00:22:56.177Z,43.56
2019-02-24T00:23:56.162Z,43.58
2019-02-24T00:24:56.152Z,43.48
2019-02-24T00:25:56.148Z,43.48
2019-02-24T00:26:56.132Z,43.48
2019-02-24T00:27:56.116Z,43.88
2019-02-24T00:28:56.107Z,43.88
2019-02-24T00:29:56.096Z,43.78
2019-02-24T00:30:56.094Z,43.78
2019-02-24T00:31:56.081Z,43.88
2019-02-24T00:32:56.064Z,43.78
2019-02-24T00:33:56.054Z,43.68
2019-02-24T00:34:56.047Z,43.68
2019-02-24T00:35:56.037Z,43.18
2019-02-24T00:36:56.024Z,43.58
2019-02-24T00:37:56.014Z,43.58
2019-02-24T00:38:55.997Z,43.78
2019-02-24T00:39:55.992Z,43.28
2019-02-24T00:40:55.975Z,43.28
2019-02-24T00:41:55.970Z,43.58
2019-02-24T00:42:55.962Z,43.78
2019-02-24T00:43:55.941Z,42.78
2019-02-24T00:44:55.927Z,43.18
2019-02-24T00:45:55.915Z,42.88
2019-02-24T00:46:55.906Z,43.28
2019-02-24T00:47:55.896Z,43.08
2019-02-24T00:48:55.887Z,42.97
2019-02-24T00:49:55.875Z,42.97
2019-02-24T00:50:55.857Z,42.88
2019-02-24T00:51:55.849Z,43.18
2019-02-24T00:52:55.840Z,42.97
2019-02-24T00:53:55.832Z,43.28
2019-02-24T00:54:55.824Z,42.97
2019-02-24T00:55:55.800Z,42.97
2019-02-24T00:56:55.789Z,42.97
2019-02-24T00:57:55.783Z,42.86
2019-02-24T00:58:55.771Z,42.97
2019-02-24T00:59:55.758Z,43.28
2019-02-24T01:00:55.746Z,42.97
2019-02-24T01:01:55.733Z,42.97
2019-02-24T01:02:55.723Z,42.78
2019-02-24T01:03:55.731Z,42.97
2019-02-24T01:04:55.702Z,43.16
2019-02-24T01:05:55.691Z,43.18
2019-02-24T01:06:55.683Z,43.08
2019-02-24T01:07:55.673Z,43.08
2019-02-24T01:08:55.658Z,43.08
2019-02-24T01:09:55.645Z,43.28
2019-02-24T01:10:55.642Z,43.58
2019-02-24T01:11:55.624Z,43.68
2019-02-24T01:12:55.611Z,43.78
2019-02-24T01:13:55.610Z,43.98
2019-02-24T01:14:55.606Z,42.88
2019-02-24T01:15:55.590Z,43.46
2019-02-24T01:16:55.586Z,43.48
2019-02-24T01:17:55.559Z,43.08
2019-02-24T01:18:55.546Z,42.97
2019-02-24T01:19:55.543Z,43.48
2019-02-24T01:20:55.527Z,43.48
2019-02-24T01:21:55.560Z,43.28
2019-02-24T01:22:55.522Z,43.48
2019-02-24T01:23:55.493Z,43.28
2019-02-24T01:24:55.482Z,43.18
2019-02-24T01:25:55.478Z,43.28
2019-02-24T01:26:55.464Z,43.28
2019-02-24T01:27:55.453Z,43.18
2019-02-24T01:28:55.436Z,43.08
2019-02-24T01:29:55.430Z,43.18
2019-02-24T01:30:55.415Z,43.18
2019-02-24T01:31:55.412Z,43.18
2019-02-24T01:32:55.392Z,42.97
2019-02-24T01:33:55.389Z,43.08
2019-02-24T01:34:55.371Z,43.68
2019-02-24T01:35:55.363Z,42.68
2019-02-24T01:36:55.348Z,43.28
2019-02-24T01:37:55.336Z,43.18
2019-02-24T01:38:55.332Z,42.88
2019-02-24T01:39:55.328Z,42.68
2019-02-24T01:40:55.305Z,43.08
2019-02-24T01:41:55.294Z,42.38
2019-02-24T01:42:55.283Z,42.68
2019-02-24T01:43:55.277Z,43.28
2019-02-24T01:44:55.264Z,42.68
2019-02-24T01:45:55.260Z,42.68
2019-02-24T01:46:55.240Z,42.97
2019-02-24T01:47:55.227Z,42.97
2019-02-24T01:48:55.222Z,42.68
2019-02-24T01:49:55.212Z,42.68
2019-02-24T01:50:55.201Z,42.47
2019-02-24T01:51:55.186Z,42.38
2019-02-24T01:52:55.180Z,42.18
2019-02-24T01:53:55.168Z,42.38
2019-02-24T01:54:55.159Z,42.27
2019-02-24T01:55:55.140Z,42.18
2019-02-24T01:56:55.131Z,42.27
2019-02-24T01:57:55.118Z,42.27
2019-02-24T01:58:55.107Z,42.27
2019-02-24T01:59:55.097Z,42.58
2019-02-24T02:00:55.086Z,42.47
2019-02-24T02:01:55.079Z,42.58
2019-02-24T02:02:55.063Z,42.47
2019-02-24T02:03:55.051Z,42.60
2019-02-24T02:04:55.040Z,42.47
2019-02-24T02:05:55.042Z,42.58
2019-02-24T02:06:55.023Z,42.68
2019-02-24T02:07:55.007Z,42.68
2019-02-24T02:08:55.001Z,42.58
2019-02-24T02:09:54.988Z,42.38
2019-02-24T02:10:54.974Z,42.47
2019-02-24T02:11:54.971Z,42.38
2019-02-24T02:12:54.956Z,42.58
2019-02-24T02:13:54.941Z,42.38
2019-02-24T02:14:54.933Z,42.58
2019-02-24T02:15:54.932Z,42.58
2019-02-24T02:16:54.913Z,42.47
2019-02-24T02:17:54.903Z,42.97
2019-02-24T02:18:54.891Z,42.38
2019-02-24T02:19:54.881Z,42.97
2019-02-24T02:20:54.876Z,42.58
2019-02-24T02:21:54.853Z,42.68
2019-02-24T02:22:54.842Z,42.88
2019-02-24T02:23:54.837Z,42.60
2019-02-24T02:24:54.820Z,42.68
2019-02-24T02:25:54.809Z,42.88
2019-02-24T02:26:54.800Z,43.10
2019-02-24T02:27:54.788Z,42.80
2019-02-24T02:28:54.781Z,42.88
2019-02-24T02:29:54.765Z,43.10
2019-02-24T02:30:54.754Z,43.20
2019-02-24T02:31:54.784Z,43.00
2019-02-24T02:32:54.731Z,42.69
2019-02-24T02:33:54.744Z,43.20
2019-02-24T02:34:54.720Z,42.78
2019-02-24T02:35:54.710Z,42.58
2019-02-24T02:36:54.688Z,42.78
2019-02-24T02:37:54.685Z,42.27
2019-02-24T02:38:54.663Z,42.69
2019-02-24T02:39:54.652Z,42.19
2019-02-24T02:40:54.665Z,42.27
2019-02-24T02:41:54.631Z,43.00
2019-02-24T02:42:54.626Z,42.19
2019-02-24T02:43:54.612Z,42.19
2019-02-24T02:44:54.597Z,42.60
2019-02-24T02:45:54.588Z,42.40
2019-02-24T02:46:54.575Z,42.30
2019-02-24T02:47:54.564Z,42.19
2019-02-24T02:48:54.558Z,42.97
2019-02-24T02:49:54.544Z,42.38
2019-02-24T02:50:54.532Z,42.49
2019-02-24T02:51:54.533Z,42.90
2019-02-24T02:52:54.511Z,42.80
2019-02-24T02:53:54.497Z,42.40
2019-02-24T02:54:54.494Z,42.07
2019-02-24T02:55:54.478Z,41.79
2019-02-24T02:56:54.471Z,42.10
2019-02-24T02:57:54.470Z,42.10
2019-02-24T02:58:54.816Z,42.19
2019-02-24T02:59:54.435Z,42.10
2019-02-24T03:00:54.430Z,41.99
2019-02-24T03:01:54.437Z,41.89
2019-02-24T03:02:54.405Z,42.40
2019-02-24T03:03:54.416Z,42.49
2019-02-24T03:04:54.378Z,42.10
2019-02-24T03:05:54.378Z,42.27
2019-02-24T03:06:54.353Z,42.27
2019-02-24T03:07:54.342Z,42.07
2019-02-24T03:08:54.343Z,42.49
2019-02-24T03:09:54.320Z,42.07
2019-02-24T03:10:54.310Z,42.07
2019-02-24T03:11:54.308Z,42.30
2019-02-24T03:12:54.290Z,42.18
2019-02-24T03:13:54.276Z,41.89
2019-02-24T03:14:54.281Z,41.89
2019-02-24T03:15:54.255Z,41.97
2019-02-24T03:16:54.243Z,42.07
2019-02-24T03:17:54.245Z,41.69
2019-02-24T03:18:54.242Z,41.69
2019-02-24T03:19:54.215Z,42.10
2019-02-24T03:20:54.198Z,41.87
2019-02-24T03:21:54.191Z,41.79
2019-02-24T03:22:54.186Z,41.59
2019-02-24T03:23:54.175Z,42.27
2019-02-24T03:24:54.155Z,42.27
2019-02-24T03:25:54.152Z,42.10
2019-02-24T03:26:54.132Z,42.10
2019-02-24T03:27:54.131Z,42.18
2019-02-24T03:29:03.603Z,42.10
2019-02-24T03:29:55.110Z,42.10
2019-02-24T03:30:54.108Z,41.87
2019-02-24T03:31:54.088Z,41.77
2019-02-24T03:32:54.069Z,42.07
2019-02-24T03:33:54.057Z,41.79
2019-02-24T03:34:54.049Z,41.99
2019-02-24T03:35:54.053Z,41.99
2019-02-24T03:36:54.031Z,41.89
2019-02-24T03:37:54.012Z,42.10
2019-02-24T03:38:54.004Z,42.07
2019-02-24T03:39:53.990Z,42.30
2019-02-24T03:40:53.984Z,42.19
2019-02-24T03:41:53.973Z,42.10
2019-02-24T03:42:53.959Z,42.10
2019-02-24T03:43:53.946Z,41.89
2019-02-24T03:44:53.935Z,42.10
2019-02-24T03:45:53.925Z,41.99
2019-02-24T03:46:53.919Z,42.10
2019-02-24T03:47:53.907Z,42.40
2019-02-24T03:48:53.889Z,42.10
2019-02-24T03:49:53.879Z,41.99
2019-02-24T03:50:53.872Z,41.99
2019-02-24T03:51:53.861Z,42.38
2019-02-24T03:52:53.867Z,41.99
2019-02-24T03:53:53.841Z,42.30
2019-02-24T03:54:53.826Z,42.49
2019-02-24T03:55:53.815Z,42.10
2019-02-24T03:56:53.804Z,41.89
2019-02-24T03:57:53.793Z,42.40
2019-02-24T03:58:53.780Z,42.40
2019-02-24T03:59:53.774Z,41.59
2019-02-24T04:00:53.764Z,42.40
2019-02-24T04:01:53.748Z,41.49
2019-02-24T04:02:53.737Z,41.99
2019-02-24T04:03:53.746Z,41.79
2019-02-24T04:04:53.728Z,41.59
2019-02-24T04:05:53.722Z,41.89
2019-02-24T04:06:53.693Z,41.89
2019-02-24T04:07:53.682Z,41.99
2019-02-24T04:08:53.671Z,41.89
2019-02-24T04:09:53.663Z,41.99
2019-02-24T04:10:53.679Z,41.99
2019-02-24T04:11:53.642Z,41.89
2019-02-24T04:12:53.628Z,41.89
2019-02-24T04:13:53.619Z,41.89
2019-02-24T04:14:53.608Z,41.69
2019-02-24T04:15:53.613Z,41.89
2019-02-24T04:16:53.591Z,41.49
2019-02-24T04:17:53.577Z,42.10
2019-02-24T04:18:53.561Z,41.59
2019-02-24T04:19:53.565Z,41.39
2019-02-24T04:20:53.543Z,41.69
2019-02-24T04:21:53.538Z,41.59
2019-02-24T04:22:53.519Z,42.19
2019-02-24T04:23:53.506Z,41.69
2019-02-24T04:24:53.495Z,41.69
2019-02-24T04:25:53.483Z,41.59
2019-02-24T04:26:53.474Z,41.59
2019-02-24T04:27:53.483Z,41.59
2019-02-24T04:28:53.453Z,41.39
2019-02-24T04:29:53.441Z,41.69
2019-02-24T04:30:53.433Z,41.59
2019-02-24T04:31:53.423Z,41.69
2019-02-24T04:32:53.413Z,41.59
2019-02-24T04:33:53.402Z,41.69
2019-02-24T04:34:53.390Z,41.79
2019-02-24T04:35:53.374Z,41.79
2019-02-24T04:36:53.364Z,41.59
2019-02-24T04:37:53.351Z,41.49
2019-02-24T04:38:53.353Z,41.79
2019-02-24T04:39:53.331Z,41.89
2019-02-24T04:40:53.317Z,41.39
2019-02-24T04:41:53.310Z,41.89
2019-02-24T04:42:53.313Z,41.89
2019-02-24T04:43:53.290Z,41.79
2019-02-24T04:44:53.289Z,41.99
2019-02-24T04:45:53.272Z,41.79
2019-02-24T04:46:53.254Z,41.79
2019-02-24T04:47:53.254Z,41.39
2019-02-24T04:48:53.234Z,41.69
2019-02-24T04:49:53.262Z,41.69
2019-02-24T04:50:53.209Z,41.61
2019-02-24T04:51:53.197Z,41.69
2019-02-24T04:52:53.186Z,41.59
2019-02-24T04:53:53.185Z,41.69
2019-02-24T04:54:53.169Z,41.41
2019-02-24T04:55:53.162Z,41.29
2019-02-24T04:56:53.141Z,40.79
2019-02-24T04:57:53.134Z,41.09
2019-02-24T04:58:53.119Z,41.09
2019-02-24T04:59:53.116Z,41.69
2019-02-24T05:00:53.107Z,40.79
2019-02-24T05:01:53.101Z,41.59
2019-02-24T05:02:53.074Z,41.29
2019-02-24T05:03:53.065Z,41.49
2019-02-24T05:04:53.055Z,41.39
2019-02-24T05:05:53.067Z,40.69
2019-02-24T05:06:53.037Z,40.48
2019-02-24T05:07:53.026Z,40.91
2019-02-24T05:08:53.009Z,40.69
2019-02-24T05:09:52.996Z,40.99
2019-02-24T05:10:52.994Z,40.89
2019-02-24T05:11:52.980Z,40.89
2019-02-24T05:12:52.975Z,40.61
2019-02-24T05:13:52.953Z,40.89
2019-02-24T05:14:52.951Z,40.99
2019-02-24T05:15:52.934Z,40.89
2019-02-24T05:16:52.924Z,40.89
2019-02-24T05:17:52.919Z,40.79
2019-02-24T05:18:52.919Z,40.91
2019-02-24T05:19:52.890Z,40.59
2019-02-24T05:20:52.891Z,40.99
2019-02-24T05:21:52.866Z,41.29
2019-02-24T05:22:52.853Z,41.19
2019-02-24T05:23:52.849Z,41.29
2019-02-24T05:24:52.839Z,40.91
2019-02-24T05:25:52.820Z,40.89
2019-02-24T05:26:52.812Z,41.09
2019-02-24T05:27:52.800Z,41.19
2019-02-24T05:28:52.792Z,40.89
2019-02-24T05:29:52.786Z,40.89
2019-02-24T05:30:52.769Z,41.11
2019-02-24T05:31:52.757Z,40.89
2019-02-24T05:32:52.745Z,41.09
2019-02-24T05:33:52.746Z,41.19
2019-02-24T05:34:52.730Z,41.09
2019-02-24T05:35:52.725Z,41.21
2019-02-24T05:36:52.709Z,41.11
2019-02-24T05:37:52.693Z,41.09
2019-02-24T05:38:52.675Z,40.70
2019-02-24T05:39:52.664Z,40.89
2019-02-24T05:40:52.657Z,40.70
2019-02-24T05:41:52.642Z,40.81
2019-02-24T05:42:52.631Z,40.81
2019-02-24T05:43:52.620Z,40.81
2019-02-24T05:44:52.617Z,40.70
2019-02-24T05:45:52.604Z,40.91
2019-02-24T05:46:52.587Z,41.01
2019-02-24T05:47:52.667Z,40.81
2019-02-24T05:48:52.567Z,41.01
2019-02-24T05:49:52.554Z,41.01
2019-02-24T05:50:52.544Z,40.91
2019-02-24T05:51:52.544Z,40.99
2019-02-24T05:52:52.522Z,40.89
2019-02-24T05:53:52.516Z,40.99
2019-02-24T05:54:52.504Z,41.11
2019-02-24T05:55:52.492Z,40.99
2019-02-24T05:56:52.478Z,40.91
2019-02-24T05:57:52.484Z,40.89
2019-02-24T05:58:52.466Z,41.09
2019-02-24T05:59:55.217Z,40.79
2019-02-24T06:00:52.432Z,40.81
2019-02-24T06:01:52.421Z,40.70
2019-02-24T06:02:52.423Z,40.69
2019-02-24T06:03:52.403Z,40.70
2019-02-24T06:04:52.401Z,40.79
2019-02-24T06:05:52.377Z,41.01
2019-02-24T06:06:52.365Z,40.70
2019-02-24T06:07:52.359Z,41.11
2019-02-24T06:08:52.352Z,40.70
2019-02-24T06:09:52.338Z,40.91
2019-02-24T06:10:52.327Z,40.91
2019-02-24T06:11:52.332Z,40.89
2019-02-24T06:12:52.299Z,40.61
2019-02-24T06:13:52.303Z,40.91
2019-02-24T06:14:52.301Z,40.91
2019-02-24T06:15:52.268Z,41.11
2019-02-24T06:16:52.262Z,41.11
2019-02-24T06:17:52.245Z,41.11
2019-02-24T06:18:52.233Z,40.91
2019-02-24T06:19:52.225Z,40.81
2019-02-24T06:20:52.229Z,41.11
2019-02-24T06:21:52.208Z,41.11
2019-02-24T06:22:52.211Z,40.91
2019-02-24T06:23:52.191Z,40.91
2019-02-24T06:24:52.174Z,41.11
2019-02-24T06:25:52.166Z,41.51
2019-02-24T06:26:52.144Z,40.89
2019-02-24T06:27:52.134Z,40.91
2019-02-24T06:28:52.124Z,41.01
2019-02-24T06:29:52.120Z,40.70
2019-02-24T06:30:52.116Z,40.79
2019-02-24T06:31:52.089Z,41.01
2019-02-24T06:32:52.084Z,40.81
2019-02-24T06:33:52.071Z,41.01
2019-02-24T06:34:52.064Z,40.81
2019-02-24T06:35:52.045Z,40.70
2019-02-24T06:36:52.040Z,40.30
2019-02-24T06:37:52.023Z,40.70
2019-02-24T06:38:52.020Z,40.81
2019-02-24T06:39:52.025Z,40.99
2019-02-24T06:40:52.010Z,40.79
2019-02-24T06:41:51.993Z,41.21
2019-02-24T06:42:51.982Z,41.21
2019-02-24T06:43:51.966Z,41.21
2019-02-24T06:44:51.948Z,40.70
2019-02-24T06:45:51.941Z,40.70
2019-02-24T06:46:51.923Z,40.70
2019-02-24T06:47:51.915Z,41.21
2019-02-24T06:48:51.902Z,41.01
2019-02-24T06:49:51.893Z,41.11
2019-02-24T06:50:51.886Z,40.70
2019-02-24T06:51:51.881Z,41.01
2019-02-24T06:52:51.864Z,41.01
2019-02-24T06:53:51.878Z,40.81
2019-02-24T06:54:51.838Z,40.81
2019-02-24T06:55:51.824Z,41.21
2019-02-24T06:56:51.815Z,40.70
2019-02-24T06:57:51.803Z,40.70
2019-02-24T06:58:51.791Z,40.91
2019-02-24T06:59:51.780Z,40.70
2019-02-24T07:00:51.773Z,40.70
2019-02-24T07:01:51.757Z,40.70
2019-02-24T07:02:51.755Z,40.91
2019-02-24T07:03:51.762Z,40.81
2019-02-24T07:04:51.735Z,41.01
2019-02-24T07:05:51.725Z,41.21
2019-02-24T07:06:51.705Z,41.01
2019-02-24T07:07:51.693Z,41.21
2019-02-24T07:08:51.696Z,40.70
2019-02-24T07:09:51.671Z,41.21
2019-02-24T07:10:51.668Z,40.70
2019-02-24T07:11:51.649Z,40.70
2019-02-24T07:12:51.634Z,41.21
2019-02-24T07:13:51.624Z,40.81
2019-02-24T07:14:51.625Z,41.01
2019-02-24T07:15:51.610Z,41.11
2019-02-24T07:16:51.594Z,41.09
2019-02-24T07:17:51.623Z,40.70
2019-02-24T07:18:51.570Z,40.70
2019-02-24T07:19:51.560Z,41.11
2019-02-24T07:20:51.547Z,41.11
2019-02-24T07:21:51.542Z,40.70
2019-02-24T07:22:51.526Z,40.91
2019-02-24T07:23:51.514Z,41.01
2019-02-24T07:24:51.501Z,40.30
2019-02-24T07:25:51.497Z,41.11
2019-02-24T07:26:51.550Z,41.11
2019-02-24T07:27:51.468Z,41.01
2019-02-24T07:28:51.464Z,41.01
2019-02-24T07:29:51.452Z,40.61
2019-02-24T07:30:51.438Z,41.09
2019-02-24T07:31:51.430Z,40.61
2019-02-24T07:32:51.415Z,40.81
2019-02-24T07:33:51.403Z,40.61
2019-02-24T07:34:51.391Z,41.11
2019-02-24T07:35:51.390Z,41.01
2019-02-24T07:36:51.378Z,40.61
2019-02-24T07:37:51.372Z,40.61
2019-02-24T07:38:51.353Z,40.61
2019-02-24T07:39:51.335Z,40.91
2019-02-24T07:40:51.328Z,40.91
2019-02-24T07:41:51.314Z,40.70
2019-02-24T07:42:51.302Z,40.70
2019-02-24T07:43:51.292Z,40.50
2019-02-24T07:44:51.279Z,40.50
2019-02-24T07:45:51.269Z,40.48
2019-02-24T07:46:51.258Z,40.41
2019-02-24T07:47:51.251Z,40.41
2019-02-24T07:48:51.244Z,40.61
2019-02-24T07:49:51.233Z,40.61
2019-02-24T07:50:51.215Z,40.99
2019-02-24T07:51:51.202Z,40.79
2019-02-24T07:52:51.192Z,40.91
2019-02-24T07:53:51.194Z,40.50
2019-02-24T07:54:51.178Z,40.41
2019-02-24T07:55:51.175Z,40.50
2019-02-24T07:56:51.160Z,40.59
2019-02-24T07:57:51.136Z,40.20
2019-02-24T07:58:51.140Z,40.30
2019-02-24T07:59:51.122Z,40.41
2019-02-24T08:00:51.104Z,40.20
2019-02-24T08:01:51.093Z,40.00
2019-02-24T08:02:51.083Z,40.20
2019-02-24T08:03:51.069Z,40.61
2019-02-24T08:04:51.061Z,40.28
2019-02-24T08:05:51.061Z,40.19
2019-02-24T08:06:51.043Z,40.30
2019-02-24T08:07:51.033Z,39.60
2019-02-24T08:08:51.014Z,39.80
2019-02-24T08:09:51.010Z,40.00
2019-02-24T08:10:50.992Z,38.70
2019-02-24T08:11:50.993Z,39.40
2019-02-24T08:12:50.972Z,40.00
2019-02-24T08:13:50.959Z,39.60
2019-02-24T08:14:50.948Z,39.10
2019-02-24T08:15:50.941Z,39.20
2019-02-24T08:16:50.930Z,39.10
2019-02-24T08:17:50.928Z,39.00
2019-02-24T08:18:52.041Z,39.10
2019-02-24T08:19:50.896Z,39.60
2019-02-24T08:20:50.901Z,39.90
2019-02-24T08:21:50.876Z,39.90
2019-02-24T08:22:50.864Z,39.70
2019-02-24T08:23:50.866Z,39.90
2019-02-24T08:24:50.842Z,39.90
2019-02-24T08:25:50.829Z,39.90
2019-02-24T08:26:50.823Z,39.90
2019-02-24T08:27:50.804Z,39.60
2019-02-24T08:28:50.799Z,39.50
2019-02-24T08:29:50.785Z,39.90
2019-02-24T08:30:50.777Z,39.60
2019-02-24T08:31:50.764Z,39.60
2019-02-24T08:32:50.760Z,39.50
2019-02-24T08:33:50.742Z,39.48
2019-02-24T08:34:50.746Z,39.50
2019-02-24T08:35:50.716Z,39.60
2019-02-24T08:36:50.706Z,39.60
2019-02-24T08:37:50.693Z,39.10
2019-02-24T08:38:50.682Z,39.30
2019-02-24T08:39:50.696Z,39.30
2019-02-24T08:40:50.678Z,39.10
2019-02-24T08:41:50.658Z,39.20
2019-02-24T08:42:50.639Z,39.00
2019-02-24T08:43:50.627Z,39.00
2019-02-24T08:44:50.615Z,32.46
2019-02-24T08:45:50.611Z,30.65
2019-02-24T08:46:50.649Z,26.45
2019-02-24T08:47:50.588Z,25.57
2019-02-24T08:48:50.574Z,28.28
2019-02-24T08:49:50.566Z,32.93
2019-02-24T08:50:50.553Z,32.75
2019-02-24T08:51:50.547Z,33.94
2019-02-24T08:52:50.529Z,35.26
2019-02-24T08:53:50.515Z,36.15
2019-02-24T08:54:50.506Z,36.57
2019-02-24T08:55:50.494Z,36.76
2019-02-24T08:56:50.493Z,36.55
2019-02-24T08:57:50.490Z,37.04
2019-02-24T08:58:50.461Z,36.72
2019-02-24T08:59:50.449Z,36.11
2019-02-24T09:00:51.239Z,36.00
2019-02-24T09:01:50.436Z,35.90
2019-02-24T09:02:52.436Z,35.78
2019-02-24T09:03:50.427Z,35.88
2019-02-24T09:04:50.397Z,35.55
2019-02-24T09:05:50.384Z,35.25
2019-02-24T09:06:50.381Z,34.33
2019-02-24T09:07:50.369Z,34.02
2019-02-24T09:08:50.364Z,33.81
2019-02-24T09:09:50.367Z,33.91
2019-02-24T09:10:50.330Z,33.91
2019-02-24T09:11:50.318Z,34.19
2019-02-24T09:12:50.307Z,34.19
2019-02-24T09:13:50.298Z,33.99
2019-02-24T09:14:50.285Z,33.99
2019-02-24T09:15:50.277Z,34.01
2019-02-24T09:16:50.260Z,33.89
2019-02-24T09:17:50.263Z,33.69
2019-02-24T09:18:50.244Z,33.99
2019-02-24T09:19:50.246Z,33.89
2019-02-24T09:20:50.224Z,33.79
2019-02-24T09:21:50.208Z,33.87
2019-02-24T09:22:50.205Z,33.87
2019-02-24T09:23:50.184Z,33.56
2019-02-24T09:24:50.182Z,33.36
2019-02-24T09:25:50.175Z,33.98
2019-02-24T09:26:50.163Z,34.08
2019-02-24T09:27:50.141Z,33.87
2019-02-24T09:28:50.921Z,33.58
2019-02-24T09:29:50.118Z,33.86
2019-02-24T09:30:50.127Z,33.66
2019-02-24T09:31:50.104Z,33.76
2019-02-24T09:32:50.088Z,33.36
2019-02-24T09:33:50.073Z,33.56
2019-02-24T09:34:50.079Z,33.66
2019-02-24T09:35:51.673Z,34.28
2019-02-24T09:36:50.061Z,33.87
2019-02-24T09:37:50.031Z,33.69
2019-02-24T09:38:50.020Z,33.87
2019-02-24T09:39:50.008Z,33.87
2019-02-24T09:40:49.996Z,33.98
2019-02-24T09:41:49.987Z,34.08
2019-02-24T09:42:49.978Z,34.08
2019-02-24T09:43:49.969Z,33.47
2019-02-24T09:44:49.955Z,34.08
2019-02-24T09:45:49.945Z,34.08
2019-02-24T09:46:49.931Z,34.59
2019-02-24T09:47:49.924Z,34.19
2019-02-24T09:48:49.917Z,34.09
2019-02-24T09:49:49.901Z,33.99
2019-02-24T09:50:49.892Z,34.59
2019-02-24T09:51:49.892Z,34.59
2019-02-24T09:52:49.875Z,33.99
2019-02-24T09:53:49.876Z,34.49
2019-02-24T09:54:49.857Z,34.39
2019-02-24T09:55:49.841Z,35.10
2019-02-24T09:56:49.822Z,35.21
2019-02-24T09:57:49.816Z,35.51
2019-02-24T09:58:49.804Z,35.61
2019-02-24T09:59:49.797Z,35.71
2019-02-24T10:00:49.800Z,35.53
2019-02-24T10:01:49.777Z,35.63
2019-02-24T10:02:49.769Z,35.13
2019-02-24T10:03:49.752Z,35.73
2019-02-24T10:04:49.743Z,35.53
2019-02-24T10:05:49.723Z,35.93
2019-02-24T10:06:49.714Z,35.93
2019-02-24T10:07:49.700Z,36.13
2019-02-24T10:08:49.693Z,36.05
2019-02-24T10:09:49.682Z,35.85
2019-02-24T10:10:49.668Z,36.45
2019-02-24T10:11:49.658Z,36.55
2019-02-24T10:12:49.654Z,36.95
2019-02-24T10:13:51.185Z,37.15
2019-02-24T10:14:49.624Z,37.05
2019-02-24T10:15:49.637Z,36.75
2019-02-24T10:16:49.604Z,36.65
2019-02-24T10:17:49.599Z,36.65
2019-02-24T10:18:49.596Z,36.75
2019-02-24T10:19:49.571Z,36.55
2019-02-24T10:20:49.559Z,36.75
2019-02-24T10:21:49.558Z,36.45
2019-02-24T10:22:49.543Z,36.75
2019-02-24T10:23:49.538Z,36.45
2019-02-24T10:24:49.543Z,36.55
2019-02-24T10:25:49.510Z,36.57
2019-02-24T10:26:49.493Z,36.36
2019-02-24T10:27:49.485Z,36.45
2019-02-24T10:28:49.474Z,36.45
2019-02-24T10:29:49.477Z,36.36
2019-02-24T10:30:49.469Z,37.07
2019-02-24T10:31:49.439Z,37.46
2019-02-24T10:32:49.432Z,37.27
2019-02-24T10:33:49.417Z,37.57
2019-02-24T10:34:49.412Z,37.27
2019-02-24T10:35:49.397Z,37.57
2019-02-24T10:36:49.403Z,37.37
2019-02-24T10:37:49.373Z,37.67
2019-02-24T10:38:49.383Z,36.85
2019-02-24T10:39:49.401Z,37.67
2019-02-24T10:40:49.349Z,37.67
2019-02-24T10:41:49.337Z,37.67
2019-02-24T10:42:49.319Z,37.57
2019-02-24T10:43:49.312Z,37.05
2019-02-24T10:44:49.313Z,37.07
2019-02-24T10:45:49.292Z,36.97
2019-02-24T10:46:49.274Z,37.27
2019-02-24T10:47:49.282Z,37.37
2019-02-24T10:48:49.258Z,37.47
2019-02-24T10:49:49.246Z,36.77
2019-02-24T10:50:49.232Z,36.77
2019-02-24T10:51:49.231Z,36.67
2019-02-24T10:52:49.212Z,37.47
2019-02-24T10:53:49.204Z,36.87
2019-02-24T10:54:49.185Z,36.67
2019-02-24T10:55:49.174Z,36.77
2019-02-24T10:56:49.164Z,36.67
2019-02-24T10:57:49.157Z,36.77
2019-02-24T10:58:49.149Z,36.57
2019-02-24T10:59:49.135Z,36.77
2019-02-24T11:00:49.121Z,36.87
2019-02-24T11:01:49.112Z,36.77
2019-02-24T11:02:49.098Z,36.87
2019-02-24T11:03:49.091Z,36.87
2019-02-24T11:04:49.109Z,36.97
2019-02-24T11:05:49.068Z,37.17
2019-02-24T11:06:49.060Z,36.77
2019-02-24T11:07:49.043Z,36.77
2019-02-24T11:08:49.035Z,37.07
2019-02-24T11:09:49.019Z,37.17
2019-02-24T11:10:49.027Z,37.07
2019-02-24T11:11:48.996Z,37.17
2019-02-24T11:12:48.986Z,37.17
2019-02-24T11:13:48.975Z,36.97
2019-02-24T11:14:49.023Z,36.87
2019-02-24T11:15:48.958Z,37.07
2019-02-24T11:16:48.956Z,36.97
2019-02-24T11:17:48.935Z,36.97
2019-02-24T11:18:48.926Z,36.97
2019-02-24T11:19:48.908Z,37.17
2019-02-24T11:20:48.903Z,37.17
2019-02-24T11:21:48.888Z,37.27
2019-02-24T11:22:48.901Z,37.17
2019-02-24T11:23:48.864Z,37.27
2019-02-24T11:24:48.857Z,36.67
2019-02-24T11:25:48.849Z,37.27
2019-02-24T11:26:48.831Z,36.87
2019-02-24T11:27:48.823Z,37.37
2019-02-24T11:28:48.812Z,37.57
2019-02-24T11:29:48.798Z,37.17
2019-02-24T11:30:48.793Z,37.17
2019-02-24T11:31:48.777Z,37.17
2019-02-24T11:32:48.767Z,36.77
2019-02-24T11:33:48.764Z,37.27
2019-02-24T11:34:48.748Z,37.27
2019-02-24T11:35:48.733Z,37.19
2019-02-24T11:36:48.725Z,37.17
2019-02-24T11:37:48.723Z,37.17
2019-02-24T11:38:48.705Z,37.39
2019-02-24T11:39:48.698Z,37.39
2019-02-24T11:40:48.677Z,37.17
2019-02-24T11:41:48.666Z,37.07
2019-02-24T11:42:48.656Z,37.07
2019-02-24T11:43:48.643Z,37.07
2019-02-24T11:44:48.635Z,37.07
2019-02-24T11:45:48.639Z,37.19
2019-02-24T11:46:48.622Z,37.17
2019-02-24T11:47:48.600Z,36.87
2019-02-24T11:48:48.590Z,37.39
2019-02-24T11:49:48.583Z,37.19
2019-02-24T11:50:48.570Z,37.07
2019-02-24T11:51:48.581Z,37.17
2019-02-24T11:52:48.544Z,37.17
2019-02-24T11:53:48.540Z,36.97
2019-02-24T11:54:48.528Z,37.17
2019-02-24T11:55:48.517Z,37.29
2019-02-24T11:56:48.512Z,37.17
2019-02-24T11:57:48.488Z,37.17
2019-02-24T11:58:48.486Z,37.17
2019-02-24T11:59:48.469Z,37.17
2019-02-24T12:00:48.464Z,37.07
2019-02-24T12:01:48.449Z,37.17
2019-02-24T12:02:48.443Z,37.17
2019-02-24T12:03:48.426Z,37.17
2019-02-24T12:04:48.415Z,37.17
2019-02-24T12:05:48.403Z,36.97
2019-02-24T12:06:48.401Z,37.17
2019-02-24T12:07:48.385Z,37.07
2019-02-24T12:08:48.367Z,37.08
2019-02-24T12:09:48.357Z,37.08
2019-02-24T12:10:48.346Z,36.97
2019-02-24T12:11:48.334Z,36.97
2019-02-24T12:12:48.326Z,37.17
2019-02-24T12:13:48.324Z,37.07
2019-02-24T12:14:48.303Z,37.17
2019-02-24T12:15:48.290Z,37.17
2019-02-24T12:16:48.280Z,37.17
2019-02-24T12:17:48.272Z,37.17
2019-02-24T12:18:48.257Z,37.49
2019-02-24T12:19:48.258Z,37.39
2019-02-24T12:20:48.234Z,37.08
2019-02-24T12:21:48.226Z,36.99
2019-02-24T12:22:48.216Z,36.77
2019-02-24T12:23:48.222Z,36.87
2019-02-24T12:24:48.196Z,36.99
2019-02-24T12:25:48.255Z,36.99
2019-02-24T12:26:48.168Z,36.89
2019-02-24T12:27:48.158Z,36.87
2019-02-24T12:28:48.157Z,36.89
2019-02-24T12:29:48.136Z,37.29
2019-02-24T12:30:48.134Z,36.97
2019-02-24T12:31:56.172Z,37.47
2019-02-24T12:32:49.101Z,37.19
2019-02-24T12:33:48.095Z,37.17
2019-02-24T12:34:48.098Z,37.47
2019-02-24T12:35:48.077Z,38.07
2019-02-24T12:36:48.073Z,38.18
2019-02-24T12:37:48.088Z,37.67
2019-02-24T12:38:48.040Z,38.68
2019-02-24T12:39:48.028Z,38.68
2019-02-24T12:40:48.014Z,38.18
2019-02-24T12:41:48.007Z,38.38
2019-02-24T12:42:48.008Z,38.48
2019-02-24T12:43:48.982Z,38.07
2019-02-24T12:44:47.973Z,38.38
2019-02-24T12:45:47.962Z,38.18
2019-02-24T12:46:47.956Z,38.38
2019-02-24T12:47:47.939Z,38.18
2019-02-24T12:48:47.937Z,38.38
2019-02-24T12:49:47.915Z,38.88
2019-02-24T12:50:47.902Z,39.88
2019-02-24T12:51:47.901Z,39.98
2019-02-24T12:52:47.882Z,39.08